createdAt,value
2022-11-28T00:02:20.125Z,6.14
2022-11-28T00:04:52.250Z,6.21
2022-11-28T00:07:24.475Z,6.17
2022-11-28T00:09:54.269Z,6.18
2022-11-28T00:12:26.416Z,6.11
2022-11-28T00:14:55.952Z,6.29
2022-11-28T00:17:26.461Z,6.22
2022-11-28T00:19:55.486Z,6.11
2022-11-28T00:22:25.082Z,6.23
2022-11-28T00:24:54.053Z,6.18
2022-11-28T00:27:23.633Z,6.23
2022-11-28T00:29:53.078Z,6.20
2022-11-28T00:32:22.064Z,6.30
2022-11-28T00:34:52.198Z,6.28
2022-11-28T00:37:21.763Z,6.43
2022-11-28T00:39:50.815Z,6.64
2022-11-28T00:42:22.394Z,6.46
2022-11-28T00:44:51.769Z,6.35
2022-11-28T00:47:20.907Z,6.41
2022-11-28T00:49:52.184Z,6.46
2022-11-28T00:52:21.178Z,6.41
2022-11-28T00:54:50.185Z,6.36
2022-11-28T00:57:21.379Z,6.47
2022-11-28T00:59:50.454Z,6.37
2022-11-28T01:02:19.687Z,6.50
2022-11-28T01:04:48.689Z,6.54
2022-11-28T01:07:19.752Z,6.54
2022-11-28T01:09:49.114Z,6.56
2022-11-28T01:12:18.740Z,6.57
2022-11-28T01:14:48.029Z,6.72
2022-11-28T01:17:16.923Z,6.56
2022-11-28T01:19:46.113Z,6.68
2022-11-28T01:22:15.113Z,6.71
2022-11-28T01:24:46.068Z,6.63
2022-11-28T01:27:15.291Z,6.71
2022-11-28T01:29:46.678Z,6.56
2022-11-28T01:32:16.357Z,6.67
2022-11-28T01:34:45.312Z,6.64
2022-11-28T01:37:14.366Z,6.58
2022-11-28T01:39:43.415Z,6.66
2022-11-28T01:42:18.492Z,6.68
2022-11-28T01:45:08.244Z,6.60
2022-11-28T01:47:37.623Z,6.70
2022-11-28T01:50:08.706Z,6.69
2022-11-28T01:52:40.134Z,6.72
2022-11-28T01:55:12.188Z,6.60
2022-11-28T01:57:43.683Z,6.55
2022-11-28T02:00:18.263Z,6.55
2022-11-28T02:02:52.625Z,6.74
2022-11-28T02:05:22.943Z,6.72
2022-11-28T02:07:53.024Z,6.75
2022-11-28T02:10:27.166Z,6.64
2022-11-28T02:13:22.337Z,6.66
2022-11-28T02:16:08.535Z,6.82
2022-11-28T02:18:51.439Z,6.93
2022-11-28T02:21:30.023Z,6.82
2022-11-28T02:24:51.121Z,6.90
2022-11-28T02:27:42.420Z,6.98
2022-11-28T02:30:19.392Z,7.06
2022-11-28T02:33:12.752Z,6.94
2022-11-28T02:35:55.127Z,7.02
2022-11-28T02:38:40.450Z,6.94
2022-11-28T02:41:19.172Z,6.95
2022-11-28T02:43:57.632Z,7.01
2022-11-28T02:46:36.435Z,7.00
2022-11-28T02:49:17.580Z,7.03
2022-11-28T02:51:51.234Z,7.15
2022-11-28T02:54:23.028Z,6.96
2022-11-28T02:56:54.011Z,6.92
2022-11-28T02:59:33.120Z,7.17
2022-11-28T03:02:03.406Z,7.24
2022-11-28T03:04:40.033Z,7.15
2022-11-28T03:07:26.930Z,7.15
2022-11-28T03:10:10.709Z,7.35
2022-11-28T03:12:52.206Z,7.28
2022-11-28T03:15:29.112Z,7.18
2022-11-28T03:18:09.146Z,7.23
2022-11-28T03:20:47.352Z,7.30
2022-11-28T03:23:21.712Z,7.32
2022-11-28T03:25:57.833Z,7.22
2022-11-28T03:28:32.409Z,7.25
2022-11-28T03:31:04.711Z,7.68
2022-11-28T03:33:37.181Z,7.53
2022-11-28T03:36:13.140Z,7.49
2022-11-28T03:38:46.214Z,7.35
2022-11-28T03:41:19.822Z,7.43
2022-11-28T03:43:54.012Z,7.64
2022-11-28T03:46:29.173Z,7.33
2022-11-28T03:49:01.931Z,7.37
2022-11-28T03:51:37.632Z,7.52
2022-11-28T03:54:12.677Z,7.26
2022-11-28T03:56:51.565Z,7.44
2022-11-28T03:59:27.077Z,7.10
2022-11-28T04:02:07.833Z,7.58
2022-11-28T04:04:46.264Z,7.56
2022-11-28T04:07:27.370Z,7.46
2022-11-28T04:10:05.371Z,7.37
2022-11-28T04:12:45.199Z,7.35
2022-11-28T04:15:21.409Z,7.48
2022-11-28T04:17:57.759Z,7.47
2022-11-28T04:20:34.779Z,7.49
2022-11-28T04:23:12.154Z,6.86
2022-11-28T04:25:47.556Z,7.33
2022-11-28T04:28:22.437Z,7.40
2022-11-28T04:30:54.484Z,7.30
2022-11-28T04:33:25.394Z,7.51
2022-11-28T04:35:56.993Z,7.47
2022-11-28T04:38:31.020Z,7.54
2022-11-28T04:41:06.772Z,7.44
2022-11-28T04:43:40.738Z,7.36
2022-11-28T04:46:14.530Z,7.43
2022-11-28T04:48:44.613Z,7.47
2022-11-28T04:51:20.724Z,7.38
2022-11-28T04:54:00.417Z,7.13
2022-11-28T04:56:35.050Z,7.31
2022-11-28T04:59:07.651Z,7.28
2022-11-28T05:01:40.090Z,7.35
2022-11-28T05:04:09.627Z,7.48
2022-11-28T05:06:39.609Z,7.30
2022-11-28T05:09:11.183Z,7.28
2022-11-28T05:11:40.628Z,7.32
2022-11-28T05:14:09.921Z,7.34
2022-11-28T05:16:39.650Z,7.41
2022-11-28T05:19:08.409Z,7.26
2022-11-28T05:21:39.624Z,7.28
2022-11-28T05:24:11.316Z,7.31
2022-11-28T05:26:40.631Z,7.39
2022-11-28T05:29:11.991Z,7.29
2022-11-28T05:31:40.857Z,7.41
2022-11-28T05:34:09.886Z,7.45
2022-11-28T05:36:38.844Z,7.42
2022-11-28T05:39:07.491Z,7.50
2022-11-28T05:41:38.386Z,7.52
2022-11-28T05:44:07.133Z,7.42
2022-11-28T05:46:35.990Z,7.43
2022-11-28T05:49:04.677Z,7.49
2022-11-28T05:51:33.442Z,7.46
2022-11-28T05:54:02.438Z,6.87
2022-11-28T05:56:36.943Z,7.38
2022-11-28T05:59:09.660Z,7.54
2022-11-28T06:01:38.572Z,7.48
2022-11-28T06:04:07.890Z,7.48
2022-11-28T06:06:37.219Z,6.78
2022-11-28T06:09:06.407Z,7.52
2022-11-28T06:11:36.405Z,7.44
2022-11-28T06:14:05.193Z,7.41
2022-11-28T06:16:38.198Z,7.38
2022-11-28T06:19:07.297Z,7.42
2022-11-28T06:21:38.593Z,7.45
2022-11-28T06:24:08.543Z,7.25
2022-11-28T06:26:37.344Z,7.26
2022-11-28T06:29:06.302Z,7.44
2022-11-28T06:31:35.136Z,7.47
2022-11-28T06:34:05.222Z,7.59
2022-11-28T06:36:36.298Z,7.44
2022-11-28T06:39:05.118Z,7.40
2022-11-28T06:41:33.992Z,7.55
2022-11-28T06:44:03.247Z,7.45
2022-11-28T06:46:32.618Z,7.49
2022-11-28T06:49:01.405Z,7.44
2022-11-28T06:51:31.511Z,7.36
2022-11-28T06:54:02.832Z,7.44
2022-11-28T06:56:32.175Z,7.43
2022-11-28T06:59:02.209Z,7.39
2022-11-28T07:01:32.625Z,7.39
2022-11-28T07:04:04.019Z,7.45
2022-11-28T07:06:35.927Z,7.37
2022-11-28T07:09:08.299Z,7.50
2022-11-28T07:11:37.381Z,7.61
2022-11-28T07:14:06.682Z,7.50
2022-11-28T07:16:35.550Z,7.44
2022-11-28T07:19:05.504Z,7.43
2022-11-28T07:21:36.076Z,7.47
2022-11-28T07:24:05.552Z,7.48
2022-11-28T07:26:38.075Z,7.63
2022-11-28T07:29:07.609Z,7.77
2022-11-28T07:31:38.698Z,7.63
2022-11-28T07:34:08.262Z,7.55
2022-11-28T07:36:39.810Z,7.49
2022-11-28T07:39:10.334Z,7.51
2022-11-28T07:41:40.144Z,7.58
2022-11-28T07:44:09.521Z,7.50
2022-11-28T07:46:40.095Z,7.49
2022-11-28T07:49:12.817Z,7.57
2022-11-28T07:51:43.430Z,7.65
2022-11-28T07:54:12.253Z,7.60
2022-11-28T07:59:30.286Z,7.75
2022-11-28T08:02:00.054Z,7.58
2022-11-28T08:04:29.272Z,7.58
2022-11-28T08:06:59.784Z,7.60
2022-11-28T08:09:28.882Z,7.65
2022-11-28T08:11:57.626Z,7.62
2022-11-28T08:14:26.798Z,7.56
2022-11-28T08:16:55.703Z,7.59
2022-11-28T08:19:24.946Z,7.58
2022-11-28T08:21:53.821Z,7.59
2022-11-28T08:24:24.409Z,7.56
2022-11-28T08:26:53.066Z,7.60
2022-11-28T08:29:26.615Z,7.62
2022-11-28T08:31:55.920Z,7.90
2022-11-28T08:34:25.086Z,7.72
2022-11-28T08:36:54.104Z,7.66
2022-11-28T08:39:25.453Z,7.83
2022-11-28T08:41:57.311Z,7.67
2022-11-28T08:44:30.166Z,7.77
2022-11-28T08:47:00.643Z,7.76
2022-11-28T08:49:29.514Z,7.68
2022-11-28T08:51:58.772Z,7.76
2022-11-28T08:54:31.853Z,7.77
2022-11-28T08:57:01.466Z,7.79
2022-11-28T08:59:32.821Z,7.90
2022-11-28T09:02:01.597Z,7.84
2022-11-28T09:04:30.596Z,7.26
2022-11-28T09:06:59.275Z,7.92
2022-11-28T09:09:32.856Z,7.73
2022-11-28T09:12:01.888Z,7.85
2022-11-28T09:14:30.747Z,7.85
2022-11-28T09:16:59.458Z,7.69
2022-11-28T09:19:28.751Z,7.77
2022-11-28T09:21:58.241Z,7.57
2022-11-28T09:24:27.018Z,7.80
2022-11-28T09:26:57.619Z,7.83
2022-11-28T09:29:29.555Z,7.92
2022-11-28T09:31:58.733Z,7.98
2022-11-28T09:34:27.832Z,7.90
2022-11-28T09:36:59.673Z,7.90
2022-11-28T09:39:43.933Z,8.02
2022-11-28T09:42:29.540Z,8.27
2022-11-28T09:45:02.465Z,8.10
2022-11-28T09:47:35.098Z,8.01
2022-11-28T09:50:10.813Z,7.99
2022-11-28T09:52:46.368Z,7.60
2022-11-28T09:55:23.540Z,8.06
2022-11-28T09:57:55.358Z,8.05
2022-11-28T10:00:34.588Z,8.06
2022-11-28T10:03:15.336Z,8.05
2022-11-28T10:05:49.951Z,7.89
2022-11-28T10:08:29.589Z,8.03
2022-11-28T10:11:04.624Z,8.26
2022-11-28T10:16:49.092Z,8.30
2022-11-28T10:19:52.749Z,8.32
2022-11-28T10:22:16.972Z,8.33
2022-11-28T10:24:47.934Z,8.32
2022-11-28T10:27:21.294Z,8.38
2022-11-28T10:30:02.409Z,8.44
2022-11-28T10:32:36.622Z,8.59
2022-11-28T10:35:08.515Z,8.50
2022-11-28T10:37:39.968Z,8.39
2022-11-28T10:40:38.114Z,8.76
2022-11-28T10:43:16.805Z,8.73
2022-11-28T10:45:58.894Z,8.65
2022-11-28T10:48:41.340Z,8.73
2022-11-28T10:51:24.213Z,8.54
2022-11-28T10:54:05.690Z,8.92
2022-11-28T10:56:43.897Z,8.86
2022-11-28T10:59:23.545Z,8.77
2022-11-28T11:01:54.898Z,8.24
2022-11-28T11:04:27.358Z,8.87
2022-11-28T11:07:11.409Z,8.84
2022-11-28T11:09:44.542Z,8.83
2022-11-28T11:12:21.453Z,8.81
2022-11-28T11:14:50.110Z,8.83
2022-11-28T11:17:36.685Z,8.83
2022-11-28T11:20:27.204Z,8.79
2022-11-28T11:22:59.317Z,8.86
2022-11-28T11:25:29.357Z,8.92
2022-11-28T11:28:01.504Z,8.91
2022-11-28T11:30:33.164Z,8.98
2022-11-28T11:33:07.373Z,9.10
2022-11-28T11:35:43.907Z,9.04
2022-11-28T11:38:18.453Z,9.00
2022-11-28T11:40:50.489Z,9.03
2022-11-28T11:43:28.572Z,9.01
2022-11-28T11:46:08.576Z,8.97
2022-11-28T11:48:41.343Z,9.00
2022-11-28T11:51:23.162Z,8.99
2022-11-28T11:54:03.051Z,8.83
2022-11-28T11:56:37.409Z,9.16
2022-11-28T11:59:15.117Z,9.05
2022-11-28T12:01:46.825Z,9.02
2022-11-28T12:04:44.270Z,9.00
2022-11-28T12:07:23.268Z,9.02
2022-11-28T12:09:54.931Z,9.10
2022-11-28T12:12:26.682Z,9.11
2022-11-28T12:14:57.354Z,9.18
2022-11-28T12:17:58.828Z,9.29
2022-11-28T12:20:40.245Z,9.19
2022-11-28T12:23:28.511Z,9.21
2022-11-28T12:26:05.599Z,9.18
2022-11-28T12:28:47.087Z,9.41
2022-11-28T12:31:24.032Z,9.37
2022-11-28T12:34:06.059Z,9.30
2022-11-28T12:36:41.143Z,9.23
2022-11-28T12:39:18.926Z,9.21
2022-11-28T12:42:09.463Z,9.13
2022-11-28T12:44:54.160Z,9.21
2022-11-28T12:47:40.627Z,9.16
2022-11-28T12:50:23.808Z,9.38
2022-11-28T12:53:04.280Z,9.41
2022-11-28T12:55:45.492Z,9.33
2022-11-28T12:58:23.055Z,9.33
2022-11-28T13:00:58.723Z,9.45
2022-11-28T13:03:42.821Z,9.49
2022-11-28T13:06:24.743Z,9.49
2022-11-28T13:09:10.550Z,9.44
2022-11-28T13:11:54.687Z,9.42
2022-11-28T13:14:35.477Z,9.43
2022-11-28T13:17:18.196Z,9.42
2022-11-28T13:19:53.839Z,9.41
2022-11-28T13:22:26.110Z,9.30
2022-11-28T13:25:04.390Z,9.04
2022-11-28T13:27:40.745Z,9.29
2022-11-28T13:30:20.990Z,9.31
2022-11-28T13:32:55.453Z,9.31
2022-11-28T13:35:26.228Z,9.32
2022-11-28T13:40:54.802Z,9.22
2022-11-28T13:43:27.096Z,9.32
2022-11-28T13:45:57.266Z,9.36
2022-11-28T13:49:14.292Z,9.51
2022-11-28T13:51:44.282Z,9.44
2022-11-28T13:54:43.052Z,9.49
2022-11-28T13:57:26.756Z,9.68
2022-11-28T14:00:05.617Z,9.58
2022-11-28T14:02:47.492Z,9.76
2022-11-28T14:05:26.723Z,9.95
2022-11-28T14:07:57.065Z,9.30
2022-11-28T14:10:38.384Z,9.79
2022-11-28T14:13:48.377Z,9.55
2022-11-28T14:16:29.804Z,9.61
2022-11-28T14:19:18.045Z,9.51
2022-11-28T14:21:57.947Z,9.47
2022-11-28T14:24:40.430Z,9.66
2022-11-28T14:27:19.217Z,9.47
2022-11-28T14:29:54.217Z,9.65
2022-11-28T14:32:34.762Z,9.62
2022-11-28T14:35:06.707Z,9.72
2022-11-28T14:37:53.701Z,9.67
2022-11-28T14:41:04.846Z,9.49
2022-11-28T14:43:38.307Z,9.56
2022-11-28T14:46:25.372Z,9.59
2022-11-28T14:49:22.253Z,9.52
2022-11-28T14:52:44.454Z,9.55
2022-11-28T14:55:19.135Z,9.49
2022-11-28T14:57:58.153Z,9.31
2022-11-28T15:00:29.655Z,9.16
2022-11-28T15:03:15.693Z,9.18
2022-11-28T15:05:49.046Z,9.06
2022-11-28T15:08:42.298Z,8.77
2022-11-28T15:11:33.586Z,8.04
2022-11-28T15:14:20.302Z,8.85
2022-11-28T15:16:54.278Z,9.11
2022-11-28T15:19:28.270Z,9.13
2022-11-28T15:21:57.711Z,9.00
2022-11-28T15:24:31.727Z,8.90
2022-11-28T15:27:22.633Z,8.68
2022-11-28T15:29:56.198Z,8.73
2022-11-28T15:32:26.247Z,8.60
2022-11-28T15:35:01.061Z,8.36
2022-11-28T15:37:34.295Z,8.43
2022-11-28T15:40:06.205Z,8.40
2022-11-28T15:42:37.864Z,8.43
2022-11-28T15:45:12.339Z,8.26
2022-11-28T15:47:41.239Z,8.18
2022-11-28T15:50:20.165Z,8.27
2022-11-28T15:52:58.183Z,8.26
2022-11-28T15:55:29.777Z,8.24
2022-11-28T15:58:19.305Z,8.24
2022-11-28T16:00:56.803Z,8.19
2022-11-28T16:03:34.905Z,8.18
2022-11-28T16:06:06.269Z,8.17
2022-11-28T16:08:42.239Z,8.12
2022-11-28T16:11:20.031Z,8.11
2022-11-28T16:13:49.626Z,8.02
2022-11-28T16:16:22.722Z,8.07
2022-11-28T16:18:58.340Z,8.03
2022-11-28T16:21:33.125Z,7.97
2022-11-28T16:24:03.491Z,7.93
2022-11-28T16:26:35.289Z,7.91
2022-11-28T16:29:15.367Z,7.85
2022-11-28T16:31:47.836Z,7.89
2022-11-28T16:34:45.981Z,7.86
2022-11-28T16:37:22.136Z,7.80
2022-11-28T16:40:02.439Z,7.66
2022-11-28T16:42:35.045Z,7.91
2022-11-28T16:45:10.889Z,7.82
2022-11-28T16:47:42.717Z,7.87
2022-11-28T16:50:21.623Z,7.89
2022-11-28T16:52:55.549Z,7.86
2022-11-28T16:55:47.839Z,7.85
2022-11-28T16:58:23.170Z,7.79
2022-11-28T17:00:59.491Z,7.11
2022-11-28T17:03:52.048Z,7.63
2022-11-28T17:06:26.865Z,7.68
2022-11-28T17:08:57.815Z,7.67
2022-11-28T17:11:30.655Z,7.65
2022-11-28T17:14:02.876Z,7.70
2022-11-28T17:16:35.927Z,7.68
2022-11-28T17:19:05.068Z,7.68
2022-11-28T17:21:38.454Z,7.67
2022-11-28T17:24:13.281Z,7.63
2022-11-28T17:26:42.318Z,7.92
2022-11-28T17:29:15.921Z,6.89
2022-11-28T17:31:51.704Z,7.68
2022-11-28T17:34:52.643Z,7.54
2022-11-28T17:37:22.056Z,7.48
2022-11-28T17:40:09.730Z,7.47
2022-11-28T17:42:38.779Z,7.52
2022-11-28T17:45:14.386Z,7.35
2022-11-28T17:47:43.180Z,7.39
2022-11-28T17:50:13.466Z,7.38
2022-11-28T17:52:43.023Z,7.40
2022-11-28T17:55:13.536Z,7.44
2022-11-28T17:57:45.081Z,7.47
2022-11-28T18:00:17.696Z,7.60
2022-11-28T18:02:46.872Z,7.73
2022-11-28T18:05:16.167Z,6.52
2022-11-28T18:07:45.696Z,7.53
2022-11-28T18:10:19.934Z,7.42
2022-11-28T18:12:48.890Z,7.39
2022-11-28T18:15:23.119Z,7.31
2022-11-28T18:17:53.188Z,7.36
2022-11-28T18:20:22.621Z,7.38
2022-11-28T18:22:51.883Z,7.42
2022-11-28T18:25:24.876Z,7.47
2022-11-28T18:27:54.616Z,7.60
2022-11-28T18:30:23.539Z,7.67
2022-11-28T18:32:52.530Z,7.63
2022-11-28T18:35:21.373Z,7.68
2022-11-28T18:37:50.085Z,7.75
2022-11-28T18:40:19.184Z,7.74
2022-11-28T18:42:49.288Z,7.70
2022-11-28T18:45:18.690Z,7.73
2022-11-28T18:47:48.300Z,7.77
2022-11-28T18:50:17.085Z,7.84
2022-11-28T18:52:48.446Z,7.84
2022-11-28T18:55:18.083Z,7.87
2022-11-28T18:57:46.758Z,7.80
2022-11-28T19:00:18.025Z,7.88
2022-11-28T19:02:48.680Z,7.95
2022-11-28T19:05:17.702Z,7.87
2022-11-28T19:07:50.011Z,7.84
2022-11-28T19:10:31.201Z,7.86
2022-11-28T19:13:02.012Z,7.86
2022-11-28T19:15:36.213Z,7.84
2022-11-28T19:18:07.076Z,7.84
2022-11-28T19:20:54.490Z,7.92
2022-11-28T19:23:27.999Z,7.85
2022-11-28T19:25:58.604Z,7.96
2022-11-28T19:28:31.694Z,8.02
2022-11-28T19:31:10.488Z,8.03
2022-11-28T19:33:40.081Z,8.15
2022-11-28T19:36:11.279Z,8.08
2022-11-28T19:38:42.739Z,8.02
2022-11-28T19:41:16.623Z,8.07
2022-11-28T19:43:45.749Z,8.12
2022-11-28T19:46:16.649Z,8.24
2022-11-28T19:48:45.764Z,8.15
2022-11-28T19:51:16.262Z,7.78
2022-11-28T19:53:46.075Z,8.01
2022-11-28T19:56:21.081Z,7.97
2022-11-28T19:58:53.186Z,7.93
2022-11-28T20:01:25.073Z,8.05
2022-11-28T20:03:55.553Z,8.00
2022-11-28T20:06:26.526Z,7.96
2022-11-28T20:08:57.312Z,8.00
2022-11-28T20:11:29.230Z,8.02
2022-11-28T20:13:59.592Z,7.85
2022-11-28T20:16:32.661Z,7.95
2022-11-28T20:19:05.091Z,7.91
2022-11-28T20:21:35.825Z,7.90
2022-11-28T20:24:07.635Z,7.88
2022-11-28T20:26:39.842Z,7.87
2022-11-28T20:29:09.350Z,7.76
2022-11-28T20:31:42.188Z,7.87
2022-11-28T20:34:10.921Z,7.87
2022-11-28T20:36:39.938Z,7.83
2022-11-28T20:39:11.332Z,7.96
2022-11-28T20:41:40.394Z,7.89
2022-11-28T20:44:12.149Z,7.96
2022-11-28T20:46:44.062Z,7.90
2022-11-28T20:49:14.199Z,7.23
2022-11-28T20:51:43.575Z,7.81
2022-11-28T20:54:14.290Z,7.78
2022-11-28T20:57:19.142Z,7.75
2022-11-28T20:59:33.453Z,7.75
2022-11-28T21:02:05.991Z,7.73
2022-11-28T21:04:34.961Z,7.72
2022-11-28T21:07:04.238Z,7.75
2022-11-28T21:09:32.941Z,7.78
2022-11-28T21:12:02.540Z,7.80
2022-11-28T21:14:31.897Z,7.71
2022-11-28T21:17:01.407Z,7.67
2022-11-28T21:19:31.748Z,7.64
2022-11-28T21:22:00.490Z,7.62
2022-11-28T21:24:29.345Z,7.67
2022-11-28T21:26:58.142Z,7.62
2022-11-28T21:29:27.039Z,7.52
2022-11-28T21:31:55.977Z,7.57
2022-11-28T21:34:25.224Z,7.53
2022-11-28T21:36:56.414Z,7.47
2022-11-28T21:39:25.410Z,7.45
2022-11-28T21:41:55.183Z,7.44
2022-11-28T21:44:24.092Z,7.40
2022-11-28T21:46:56.577Z,7.40
2022-11-28T21:49:25.967Z,7.36
2022-11-28T21:51:57.449Z,7.35
2022-11-28T21:54:34.096Z,7.31
2022-11-28T21:57:04.162Z,7.25
2022-11-28T21:59:33.495Z,7.21
2022-11-28T22:02:07.169Z,7.22
2022-11-28T22:04:39.154Z,7.19
2022-11-28T22:07:10.348Z,7.01
2022-11-28T22:09:39.627Z,7.11
2022-11-28T22:12:09.478Z,7.16
2022-11-28T22:14:38.352Z,6.98
2022-11-28T22:17:07.246Z,7.04
2022-11-28T22:19:36.016Z,6.94
2022-11-28T22:22:05.142Z,6.90
2022-11-28T22:24:38.426Z,6.89
2022-11-28T22:27:07.533Z,6.85
2022-11-28T22:29:36.497Z,6.82
2022-11-28T22:32:06.548Z,6.81
2022-11-28T22:34:40.084Z,6.65
2022-11-28T22:37:10.540Z,6.78
2022-11-28T22:39:41.052Z,6.71
2022-11-28T22:42:11.173Z,6.73
2022-11-28T22:44:40.510Z,6.73
2022-11-28T22:47:10.200Z,6.72
2022-11-28T22:49:41.536Z,6.70
2022-11-28T22:52:11.022Z,6.72
2022-11-28T22:54:41.471Z,6.54
2022-11-28T22:57:10.764Z,5.94
2022-11-28T22:59:39.449Z,6.43
2022-11-28T23:02:09.762Z,6.41
2022-11-28T23:04:39.155Z,6.39
2022-11-28T23:07:09.280Z,6.40
2022-11-28T23:09:38.439Z,6.35
2022-11-28T23:12:10.665Z,6.36
2022-11-28T23:14:39.432Z,6.37
2022-11-28T23:17:08.603Z,6.35
2022-11-28T23:19:40.171Z,6.25
2022-11-28T23:22:09.514Z,6.30
2022-11-28T23:24:41.380Z,6.39
2022-11-28T23:27:13.501Z,6.31
2022-11-28T23:29:42.720Z,6.25
2022-11-28T23:32:12.120Z,6.27
2022-11-28T23:34:44.033Z,6.25
2022-11-28T23:37:13.370Z,6.21
2022-11-28T23:39:42.191Z,6.21
2022-11-28T23:42:11.181Z,6.34
2022-11-28T23:44:41.489Z,6.26
2022-11-28T23:47:11.345Z,6.22
2022-11-28T23:49:40.085Z,6.20
2022-11-28T23:52:09.149Z,6.20
2022-11-28T23:54:38.684Z,6.17
2022-11-28T23:57:08.243Z,6.18
2022-11-28T23:59:37.119Z,6.15
